Time;durP1;ratioP1;P1;durP2;ratioP2;P2;SDS_P1;SDS_P2;PMS_P1;PMS_P2;Temp;Humidity;BMP_temperature;BMP_pressure;BME280_temperature;BME280_humidity;BME280_pressure;Samples;Min_cycle;Max_cycle;Signal;HPM_P1;HPM_P2
2022/12/13 00:02:15;;;;;;;21.60;10.80;;;2.00;70.20;;;;;;4907801;29;20208;-92
2022/12/13 00:04:42;;;;;;;20.50;11.13;;;2.00;70.10;;;;;;4908086;29;20208;-93
2022/12/13 00:07:16;;;;;;;20.50;10.70;;;2.00;70.30;;;;;;4909904;29;20196;-93
2022/12/13 00:09:44;;;;;;;28.23;11.40;;;2.00;70.40;;;;;;4908246;29;20202;-93
2022/12/13 00:12:16;;;;;;;19.73;9.73;;;2.00;70.50;;;;;;4905866;29;20240;-93
2022/12/13 00:14:43;;;;;;;21.33;10.83;;;1.90;70.40;;;;;;4921938;29;20249;-94
2022/12/13 00:17:14;;;;;;;18.20;9.90;;;2.00;70.70;;;;;;4930438;29;20227;-93
2022/12/13 00:19:44;;;;;;;20.30;10.73;;;2.00;70.70;;;;;;4912858;29;20201;-92
2022/12/13 00:22:17;;;;;;;22.67;9.60;;;2.00;71.40;;;;;;4914763;29;20195;-92
2022/12/13 00:24:44;;;;;;;21.00;9.67;;;2.00;70.70;;;;;;4914419;29;20231;-93
2022/12/13 00:27:21;;;;;;;19.97;10.60;;;2.00;70.60;;;;;;4909738;29;20215;-93
2022/12/13 00:29:51;;;;;;;21.93;10.93;;;2.00;70.50;;;;;;4912533;29;20208;-93
2022/12/13 00:32:20;;;;;;;18.57;9.30;;;2.00;70.50;;;;;;4912508;29;20201;-93
2022/12/13 00:34:50;;;;;;;23.20;10.70;;;1.90;70.70;;;;;;4899822;29;20204;-92
2022/12/13 00:37:22;;;;;;;22.67;11.00;;;2.00;70.80;;;;;;4899981;29;20297;-93
2022/12/13 00:39:51;;;;;;;23.67;11.33;;;2.00;70.70;;;;;;4899601;29;20228;-93
2022/12/13 00:42:23;;;;;;;24.73;9.80;;;2.00;70.60;;;;;;4897837;29;20225;-93
2022/12/13 00:44:51;;;;;;;23.63;10.73;;;2.00;70.60;;;;;;4899345;29;20232;-93
2022/12/13 00:47:23;;;;;;;24.10;11.07;;;1.90;70.30;;;;;;4901943;29;20277;-93
2022/12/13 00:49:51;;;;;;;23.53;11.53;;;2.00;70.40;;;;;;4902299;29;20220;-93
2022/12/13 00:52:25;;;;;;;24.57;11.33;;;2.00;70.50;;;;;;4903095;29;20210;-94
2022/12/13 00:54:54;;;;;;;28.00;11.80;;;2.00;70.50;;;;;;4902771;29;20207;-93
2022/12/13 00:57:37;;;;;;;23.73;11.27;;;2.00;70.50;;;;;;4901143;29;20241;-94
2022/12/13 01:00:08;;;;;;;26.20;12.57;;;1.90;70.40;;;;;;4883253;29;20232;-93
2022/12/13 01:02:36;;;;;;;22.80;10.30;;;1.90;70.50;;;;;;4884145;29;20592;-93
2022/12/13 01:05:07;;;;;;;26.70;11.87;;;1.90;70.50;;;;;;4901126;29;20259;-93
2022/12/13 01:07:35;;;;;;;24.13;10.80;;;1.90;70.80;;;;;;4905844;29;20612;-94
2022/12/13 01:10:05;;;;;;;22.17;11.10;;;1.90;70.80;;;;;;4904167;29;20242;-93
2022/12/13 01:12:35;;;;;;;22.23;10.50;;;2.00;70.90;;;;;;4908283;29;20638;-93
2022/12/13 01:15:10;;;;;;;23.13;10.17;;;1.90;70.70;;;;;;4885204;29;20195;-94
2022/12/13 01:17:38;;;;;;;22.47;10.23;;;1.90;70.60;;;;;;4894758;29;20830;-92
2022/12/13 01:20:06;;;;;;;19.10;9.83;;;1.90;70.40;;;;;;4901852;29;20193;-93
2022/12/13 01:22:40;;;;;;;18.93;9.80;;;1.90;70.60;;;;;;4913256;29;20219;-93
2022/12/13 01:25:13;;;;;;;17.77;9.27;;;1.90;70.30;;;;;;4920828;29;20275;-93
2022/12/13 01:27:42;;;;;;;23.17;11.00;;;1.90;70.20;;;;;;4901976;29;20879;-93
2022/12/13 01:30:11;;;;;;;20.20;9.53;;;1.90;70.20;;;;;;4900818;29;20229;-93
2022/12/13 01:32:40;;;;;;;27.10;11.17;;;1.90;70.30;;;;;;4901925;29;20280;-93
2022/12/13 01:35:09;;;;;;;24.27;10.37;;;1.90;70.10;;;;;;4900398;29;20204;-92
2022/12/13 01:37:39;;;;;;;21.53;10.73;;;1.80;70.10;;;;;;4914519;29;20284;-94
2022/12/13 01:40:08;;;;;;;22.77;10.87;;;1.80;70.00;;;;;;4919380;29;20273;-93
2022/12/13 01:42:38;;;;;;;19.47;10.40;;;1.90;70.10;;;;;;4897645;29;20218;-92
2022/12/13 01:45:24;;;;;;;22.67;10.80;;;1.80;69.80;;;;;;4898805;29;20733;-93
2022/12/13 01:47:56;;;;;;;23.07;10.50;;;1.90;70.10;;;;;;4901677;29;20212;-93
2022/12/13 01:50:28;;;;;;;19.93;9.30;;;1.80;69.80;;;;;;4901334;29;20203;-93
2022/12/13 01:52:57;;;;;;;22.70;10.40;;;1.80;69.80;;;;;;4904916;29;20237;-92
2022/12/13 01:55:27;;;;;;;24.80;10.87;;;1.80;69.90;;;;;;4900694;29;20264;-93
2022/12/13 01:57:58;;;;;;;25.13;11.57;;;1.80;69.90;;;;;;4900135;29;20707;-93
2022/12/13 02:00:28;;;;;;;23.63;10.90;;;1.70;69.50;;;;;;4901382;29;20512;-92
2022/12/13 02:03:04;;;;;;;25.80;11.27;;;1.70;69.70;;;;;;4900211;29;20205;-92
2022/12/13 02:05:36;;;;;;;26.63;11.17;;;1.70;69.70;;;;;;4901210;29;20237;-93
2022/12/13 02:08:05;;;;;;;21.47;10.13;;;1.70;69.80;;;;;;4919363;29;20209;-94
2022/12/13 02:10:33;;;;;;;18.60;9.57;;;1.60;69.60;;;;;;4917888;29;20259;-93
2022/12/13 02:13:00;;;;;;;20.63;10.63;;;1.60;69.60;;;;;;4924166;29;20996;-93
2022/12/13 02:15:40;;;;;;;21.63;10.73;;;1.60;69.50;;;;;;4904335;29;20581;-92
2022/12/13 02:18:23;;;;;;;23.47;10.67;;;1.60;69.80;;;;;;4900304;29;20560;-93
2022/12/13 02:21:14;;;;;;;19.80;9.70;;;1.60;69.80;;;;;;4900239;29;20263;-93
2022/12/13 02:24:10;;;;;;;21.97;10.80;;;1.60;69.80;;;;;;4901459;29;20711;-93
2022/12/13 02:27:08;;;;;;;25.53;11.40;;;1.50;69.70;;;;;;4907426;29;20208;-93
2022/12/13 02:30:17;;;;;;;19.57;9.83;;;1.50;69.70;;;;;;4897816;29;20681;-92
2022/12/13 02:33:06;;;;;;;22.57;9.77;;;1.50;69.70;;;;;;4898229;29;20271;-93
2022/12/13 02:35:41;;;;;;;23.67;10.27;;;1.40;69.60;;;;;;4895051;29;20266;-93
2022/12/13 02:38:16;;;;;;;21.07;9.53;;;1.50;69.70;;;;;;4898890;29;20210;-92
2022/12/13 02:40:48;;;;;;;28.07;11.93;;;1.40;69.60;;;;;;4899561;29;20207;-93
2022/12/13 02:43:24;;;;;;;25.37;10.50;;;1.40;69.40;;;;;;4898346;29;20212;-92
2022/12/13 02:45:58;;;;;;;21.47;10.37;;;1.30;69.50;;;;;;4898965;29;20667;-92
2022/12/13 02:48:31;;;;;;;26.13;10.77;;;1.40;69.50;;;;;;4899313;29;20208;-93
2022/12/13 02:51:00;;;;;;;22.47;10.53;;;1.40;69.20;;;;;;4899147;29;20205;-92
2022/12/13 02:53:28;;;;;;;20.70;9.43;;;1.30;69.50;;;;;;4899111;29;20201;-92
2022/12/13 02:55:55;;;;;;;28.30;10.77;;;1.30;69.50;;;;;;4899380;29;20701;-92
2022/12/13 02:58:31;;;;;;;25.57;10.50;;;1.30;69.10;;;;;;4900008;29;20574;-93
2022/12/13 03:01:12;;;;;;;22.57;10.20;;;1.30;69.30;;;;;;4900412;29;20196;-92
2022/12/13 03:03:57;;;;;;;20.90;10.00;;;1.20;69.40;;;;;;4899489;29;20212;-92
2022/12/13 03:06:31;;;;;;;22.30;10.33;;;1.20;69.20;;;;;;4899487;29;20677;-93
2022/12/13 03:09:15;;;;;;;22.53;10.13;;;1.20;69.10;;;;;;4901216;29;20231;-92
2022/12/13 03:14:58;;;;;;;22.20;10.00;;;1.10;69.40;;;;;;4900111;29;20242;-92
2022/12/13 03:17:29;;;;;;;17.87;10.00;;;1.10;69.30;;;;;;4900743;29;20252;-93
2022/12/13 03:19:59;;;;;;;30.23;11.13;;;1.00;69.10;;;;;;4901958;29;20210;-91
2022/12/13 03:22:26;;;;;;;24.43;10.87;;;1.00;69.00;;;;;;4913728;29;20210;-92
2022/12/13 03:24:54;;;;;;;25.57;10.70;;;1.00;68.90;;;;;;4896889;29;20199;-92
2022/12/13 03:27:21;;;;;;;23.07;10.37;;;1.00;69.00;;;;;;4896130;29;20645;-92
2022/12/13 03:29:55;;;;;;;19.87;9.57;;;1.00;68.90;;;;;;4894317;29;20585;-92
2022/12/13 03:32:22;;;;;;;23.33;10.37;;;1.00;69.00;;;;;;4896131;29;20207;-93
2022/12/13 03:34:49;;;;;;;28.47;11.20;;;0.90;68.90;;;;;;4897824;29;20203;-91
2022/12/13 03:37:21;;;;;;;22.23;9.87;;;0.90;69.00;;;;;;4915688;29;20239;-92
2022/12/13 03:39:49;;;;;;;27.97;10.63;;;0.90;69.20;;;;;;4916226;29;20190;-92
2022/12/13 03:42:17;;;;;;;24.57;10.57;;;0.90;69.40;;;;;;4881636;29;20225;-92
2022/12/13 03:44:46;;;;;;;27.27;10.63;;;0.90;69.20;;;;;;4882717;29;20227;-92
2022/12/13 03:47:18;;;;;;;19.60;9.37;;;0.80;68.80;;;;;;4898923;29;20606;-93
2022/12/13 03:49:45;;;;;;;20.70;10.27;;;0.90;69.10;;;;;;4899617;29;20199;-92
2022/12/13 03:52:13;;;;;;;27.30;11.37;;;0.80;68.80;;;;;;4898564;29;20218;-92
2022/12/13 03:54:46;;;;;;;21.07;9.70;;;0.80;68.90;;;;;;4899647;29;20218;-93
2022/12/13 03:57:14;;;;;;;22.50;11.13;;;0.80;68.80;;;;;;4899450;29;20239;-92
2022/12/13 03:59:41;;;;;;;21.60;10.90;;;0.80;69.00;;;;;;4899856;29;20290;-91
2022/12/13 04:02:08;;;;;;;19.00;10.03;;;0.80;69.40;;;;;;4896586;29;20723;-92
2022/12/13 04:04:35;;;;;;;23.23;11.20;;;0.80;69.30;;;;;;4899491;29;20213;-92
2022/12/13 04:07:03;;;;;;;29.00;10.70;;;0.80;69.20;;;;;;4899033;29;20676;-90
2022/12/13 04:09:33;;;;;;;27.80;11.00;;;0.70;69.30;;;;;;4898812;29;20207;-93
2022/12/13 04:14:49;;;;;;;28.27;11.30;;;0.70;69.70;;;;;;4896958;29;20196;-91
2022/12/13 04:17:17;;;;;;;25.33;10.70;;;0.70;69.50;;;;;;4895992;29;20825;-92
2022/12/13 04:19:45;;;;;;;23.47;10.07;;;0.70;69.50;;;;;;4895878;29;20341;-93
2022/12/13 04:22:12;;;;;;;23.90;10.80;;;0.70;69.60;;;;;;4903129;29;20743;-92
2022/12/13 04:25:06;;;;;;;32.17;11.70;;;0.70;69.60;;;;;;4908797;29;20249;-92
2022/12/13 04:27:36;;;;;;;25.07;10.73;;;0.70;70.00;;;;;;4919447;29;20210;-92
2022/12/13 04:30:04;;;;;;;18.73;9.77;;;0.70;69.90;;;;;;4919937;29;20640;-92
2022/12/13 04:32:32;;;;;;;23.13;9.47;;;0.70;70.00;;;;;;4906452;29;20215;-90
2022/12/13 04:34:59;;;;;;;25.73;10.67;;;0.70;70.00;;;;;;4911389;29;20204;-92
2022/12/13 04:37:28;;;;;;;22.23;9.97;;;0.70;70.00;;;;;;4921167;29;20822;-93
2022/12/13 04:39:57;;;;;;;27.53;10.93;;;0.70;69.90;;;;;;4919796;29;20207;-92
2022/12/13 04:42:24;;;;;;;24.07;10.83;;;0.70;69.80;;;;;;4919081;29;20213;-92
2022/12/13 04:44:53;;;;;;;23.70;10.80;;;0.70;69.80;;;;;;4907491;29;20249;-91
2022/12/13 04:47:20;;;;;;;24.87;10.30;;;0.70;69.90;;;;;;4900545;29;20208;-92
2022/12/13 04:49:49;;;;;;;19.73;9.37;;;0.70;69.80;;;;;;4903910;29;20324;-92
2022/12/13 04:52:20;;;;;;;21.20;9.80;;;0.70;69.80;;;;;;4905551;29;20218;-91
2022/12/13 04:54:53;;;;;;;21.13;9.67;;;0.70;69.70;;;;;;4902593;29;20201;-92
2022/12/13 04:57:20;;;;;;;28.47;10.90;;;0.70;69.70;;;;;;4900976;29;20235;-91
2022/12/13 04:59:51;;;;;;;26.17;10.70;;;0.70;69.90;;;;;;4899818;29;20210;-90
2022/12/13 05:02:23;;;;;;;24.67;10.50;;;0.70;69.60;;;;;;4899069;29;20288;-92
2022/12/13 05:04:50;;;;;;;22.93;10.40;;;0.70;69.60;;;;;;4916450;29;20208;-91
2022/12/13 07:18:04;;;;;;;18.33;8.73;;;0.40;70.80;;;;;;4878927;29;20240;-96
2022/12/13 07:20:34;;;;;;;18.73;9.17;;;0.40;70.90;;;;;;4919098;29;20269;-96
2022/12/13 07:23:12;;;;;;;17.87;9.13;;;0.40;70.60;;;;;;4922040;29;20207;-94
2022/12/13 07:25:53;;;;;;;23.00;10.30;;;0.50;70.70;;;;;;4920686;29;20213;-94
2022/12/13 07:28:25;;;;;;;21.90;10.07;;;0.40;70.90;;;;;;4919352;29;20217;-94
2022/12/13 07:30:54;;;;;;;19.77;9.90;;;0.50;70.60;;;;;;4921083;29;20224;-95
2022/12/13 07:33:22;;;;;;;22.13;10.53;;;0.50;70.70;;;;;;4917152;29;20204;-93
2022/12/13 07:35:53;;;;;;;23.10;11.20;;;0.40;70.40;;;;;;4917299;29;20595;-94
2022/12/13 07:38:22;;;;;;;23.87;11.27;;;0.50;70.70;;;;;;4917395;29;20277;-94
2022/12/13 07:40:49;;;;;;;28.73;11.80;;;0.50;70.50;;;;;;4917838;29;20247;-93
2022/12/13 07:43:17;;;;;;;26.63;12.87;;;0.50;70.50;;;;;;4925727;29;20202;-94
2022/12/13 07:45:49;;;;;;;18.90;11.10;;;0.50;70.50;;;;;;4925818;29;20213;-94
2022/12/13 07:48:26;;;;;;;21.77;11.10;;;0.50;70.40;;;;;;4924812;29;20207;-95
2022/12/13 07:50:54;;;;;;;29.13;12.27;;;0.50;70.70;;;;;;4928149;29;20226;-94
2022/12/13 07:53:23;;;;;;;23.80;11.50;;;0.50;70.70;;;;;;4926712;29;20211;-94
2022/12/13 07:55:55;;;;;;;21.73;11.43;;;0.50;70.60;;;;;;4917382;29;20984;-93
2022/12/13 07:58:24;;;;;;;22.47;11.67;;;0.60;70.60;;;;;;4920078;29;20237;-93
2022/12/13 08:00:59;;;;;;;28.93;12.73;;;0.60;70.70;;;;;;4918646;29;20210;-94
2022/12/13 08:03:28;;;;;;;21.63;10.97;;;0.60;70.90;;;;;;4920518;29;20241;-93
2022/12/13 08:06:03;;;;;;;28.00;12.63;;;0.50;70.50;;;;;;4919604;29;20266;-94
2022/12/13 08:08:31;;;;;;;21.03;11.80;;;0.60;70.70;;;;;;4902411;29;20215;-93
2022/12/13 08:11:03;;;;;;;21.23;11.07;;;0.60;71.00;;;;;;4902515;29;20220;-93
2022/12/13 08:13:41;;;;;;;20.27;10.67;;;0.60;71.20;;;;;;4908339;29;20764;-94
2022/12/13 08:16:16;;;;;;;21.80;10.43;;;0.60;71.20;;;;;;4925556;29;20211;-95
2022/12/13 08:18:47;;;;;;;24.80;12.03;;;0.70;71.20;;;;;;4928397;29;20235;-95
2022/12/13 08:21:16;;;;;;;20.87;11.17;;;0.70;71.40;;;;;;4920402;29;20606;-94
2022/12/13 08:23:51;;;;;;;25.00;12.73;;;0.70;71.20;;;;;;4923904;29;20214;-94
2022/12/13 08:26:27;;;;;;;24.37;11.87;;;0.70;71.40;;;;;;4923106;29;20199;-94
2022/12/13 08:28:58;;;;;;;24.90;11.30;;;0.70;71.30;;;;;;4921964;29;20210;-94
2022/12/13 08:31:28;;;;;;;21.73;11.00;;;0.70;71.50;;;;;;4920955;29;20216;-94
2022/12/13 08:33:58;;;;;;;25.20;11.87;;;0.80;71.60;;;;;;4918601;29;20213;-94
2022/12/13 08:36:28;;;;;;;23.00;11.03;;;0.80;71.40;;;;;;4920298;29;20218;-95
2022/12/13 08:38:57;;;;;;;21.87;11.97;;;0.80;71.50;;;;;;4920844;29;20239;-94
2022/12/13 08:41:26;;;;;;;22.33;12.63;;;0.80;71.70;;;;;;4920913;29;20207;-93
2022/12/13 08:43:58;;;;;;;21.23;12.27;;;0.80;71.60;;;;;;4924037;29;20743;-96
2022/12/13 08:46:33;;;;;;;24.20;12.80;;;0.90;71.70;;;;;;4926486;29;20220;-94
2022/12/13 08:49:08;;;;;;;23.27;12.47;;;0.90;71.80;;;;;;4921173;29;20316;-93
2022/12/13 08:51:35;;;;;;;29.33;13.43;;;1.00;72.30;;;;;;4920096;29;20218;-93
2022/12/13 08:54:05;;;;;;;22.90;12.47;;;1.00;72.00;;;;;;4921027;29;20214;-94
2022/12/13 08:56:35;;;;;;;23.87;11.47;;;1.00;72.60;;;;;;4921813;29;20212;-95
2022/12/13 08:59:07;;;;;;;21.43;11.70;;;1.00;72.20;;;;;;4922558;29;20330;-95
2022/12/13 09:01:36;;;;;;;27.50;12.87;;;1.10;72.00;;;;;;4923276;29;20216;-95
2022/12/13 09:11:03;;;;;;;25.13;11.97;;;1.20;72.30;;;;;;4911222;29;20208;-93
2022/12/13 09:13:34;;;;;;;20.70;10.87;;;1.30;72.50;;;;;;4904548;29;20228;-95
2022/12/13 09:16:15;;;;;;;24.67;10.67;;;1.30;72.50;;;;;;4911893;29;20572;-95
2022/12/13 09:18:53;;;;;;;20.10;10.63;;;1.40;72.80;;;;;;4901726;29;20250;-95
2022/12/13 09:21:22;;;;;;;22.27;11.87;;;1.40;72.30;;;;;;4906920;29;20203;-96
2022/12/13 09:24:01;;;;;;;21.97;11.50;;;1.50;72.40;;;;;;4921802;29;20215;-96
2022/12/13 09:26:33;;;;;;;20.37;10.60;;;1.50;72.80;;;;;;4927379;29;20198;-95
2022/12/13 09:29:06;;;;;;;23.30;11.70;;;1.60;72.40;;;;;;4923881;29;20211;-94
2022/12/13 09:31:50;;;;;;;22.73;11.13;;;1.70;72.30;;;;;;4920535;29;20219;-95
2022/12/13 09:34:39;;;;;;;23.70;11.53;;;1.70;72.50;;;;;;4921493;29;20223;-95
2022/12/13 09:37:10;;;;;;;22.30;11.23;;;1.80;72.30;;;;;;4920786;29;20205;-96
2022/12/13 09:39:44;;;;;;;23.73;11.87;;;1.80;72.50;;;;;;4917034;29;20223;-96
2022/12/13 09:42:24;;;;;;;21.70;11.33;;;1.90;72.20;;;;;;4921099;29;20230;-96
2022/12/13 09:44:59;;;;;;;25.27;11.43;;;1.90;72.10;;;;;;4921937;29;20213;-96
2022/12/13 09:47:33;;;;;;;25.60;12.97;;;2.00;72.30;;;;;;4921669;29;20986;-96
2022/12/13 09:50:10;;;;;;;18.63;11.03;;;2.00;71.90;;;;;;4921326;29;20218;-96
2022/12/13 09:52:42;;;;;;;19.90;11.33;;;2.10;72.00;;;;;;4919873;29;20219;-96
2022/12/13 09:55:27;;;;;;;24.60;12.10;;;2.10;71.80;;;;;;4920813;29;20208;-96
2022/12/13 09:57:55;;;;;;;21.07;11.70;;;2.20;71.70;;;;;;4919823;29;21026;-96
2022/12/13 10:00:26;;;;;;;21.63;11.43;;;2.20;71.70;;;;;;4920100;29;20771;-96
2022/12/13 10:03:00;;;;;;;15.47;10.90;;;2.30;71.60;;;;;;4919410;29;20220;-96
2022/12/13 10:05:34;;;;;;;20.77;11.50;;;2.30;71.40;;;;;;4919576;29;20205;-96
2022/12/13 10:08:07;;;;;;;17.33;10.77;;;2.40;71.40;;;;;;4907739;29;20217;-96
2022/12/13 10:10:39;;;;;;;20.43;10.70;;;2.40;71.40;;;;;;4900834;29;20229;-96
2022/12/13 10:13:19;;;;;;;17.83;10.93;;;2.40;71.20;;;;;;4905380;29;20204;-96
2022/12/13 10:15:54;;;;;;;16.57;9.63;;;2.50;71.20;;;;;;4907220;29;20572;-96
2022/12/13 10:18:35;;;;;;;23.13;11.57;;;2.50;70.80;;;;;;4912658;29;20338;-96
2022/12/13 10:21:10;;;;;;;19.70;10.17;;;2.60;70.80;;;;;;4916462;29;20218;-96
2022/12/13 10:23:41;;;;;;;25.13;12.73;;;2.60;70.70;;;;;;4917889;29;20271;-96
2022/12/13 10:26:10;;;;;;;27.83;12.67;;;2.60;70.50;;;;;;4917972;29;20204;-96
2022/12/13 10:28:40;;;;;;;25.87;13.60;;;2.70;70.80;;;;;;4918065;29;20634;-96
2022/12/13 10:31:10;;;;;;;23.57;13.13;;;2.70;70.60;;;;;;4911058;29;20258;-96
2022/12/13 10:33:56;;;;;;;32.10;14.97;;;2.70;70.80;;;;;;4906228;29;20216;-96
2022/12/13 10:36:34;;;;;;;24.23;12.77;;;2.80;71.00;;;;;;4916625;29;20211;-96
2022/12/13 10:39:14;;;;;;;18.40;10.20;;;2.80;70.90;;;;;;4928896;29;20259;-96
2022/12/13 10:41:46;;;;;;;21.00;11.67;;;2.90;70.90;;;;;;4940280;29;20207;-96
2022/12/13 10:44:28;;;;;;;18.13;11.13;;;2.90;70.60;;;;;;4939842;29;20235;-96
2022/12/13 10:47:13;;;;;;;18.63;10.80;;;3.00;70.50;;;;;;4942009;29;20212;-96
2022/12/13 10:49:55;;;;;;;27.37;12.17;;;3.00;70.60;;;;;;4929874;29;20233;-96
2022/12/13 10:52:41;;;;;;;24.20;12.20;;;3.10;70.40;;;;;;4926728;29;20293;-96
2022/12/13 10:55:28;;;;;;;24.10;12.03;;;3.10;69.90;;;;;;4918813;29;20208;-96
2022/12/13 10:58:00;;;;;;;24.37;11.60;;;3.20;69.80;;;;;;4919129;29;20648;-96
2022/12/13 11:00:45;;;;;;;18.37;11.40;;;3.20;69.70;;;;;;4903940;29;20562;-96
2022/12/13 11:03:28;;;;;;;18.47;10.77;;;3.30;70.00;;;;;;4908416;29;20625;-96
2022/12/13 11:06:03;;;;;;;14.23;9.70;;;3.30;69.80;;;;;;4903359;29;20233;-96
2022/12/13 11:08:41;;;;;;;24.33;11.90;;;3.40;70.00;;;;;;4901912;29;20216;-96
2022/12/13 11:11:11;;;;;;;20.27;10.00;;;3.40;69.60;;;;;;4920627;29;20236;-96
2022/12/13 11:13:45;;;;;;;18.53;10.83;;;3.40;69.40;;;;;;4913447;29;20257;-96
2022/12/13 11:16:29;;;;;;;19.47;11.13;;;3.50;69.50;;;;;;4910975;29;20200;-95
2022/12/13 11:19:04;;;;;;;23.83;10.67;;;3.50;69.50;;;;;;4915239;29;20224;-96
2022/12/13 11:21:39;;;;;;;23.27;11.17;;;3.60;69.60;;;;;;4921436;29;20212;-96
2022/12/13 11:24:20;;;;;;;18.40;10.40;;;3.70;69.50;;;;;;4922605;29;20215;-96
2022/12/13 11:27:00;;;;;;;23.77;11.27;;;3.80;69.60;;;;;;4921118;29;20189;-96
2022/12/13 11:29:54;;;;;;;17.57;10.40;;;3.90;69.40;;;;;;4936753;29;20327;-96
2022/12/13 11:32:42;;;;;;;19.17;10.73;;;4.00;69.00;;;;;;4927375;29;20207;-96
2022/12/13 11:41:34;;;;;;;17.93;9.93;;;4.30;68.30;;;;;;4921602;29;20205;-96
2022/12/13 11:44:31;;;;;;;18.37;9.97;;;4.30;67.80;;;;;;4920742;29;20212;-96
2022/12/13 11:47:11;;;;;;;17.23;9.90;;;4.40;67.70;;;;;;4918343;29;20207;-96
2022/12/13 11:49:41;;;;;;;18.63;10.60;;;4.40;67.50;;;;;;4920668;29;20662;-95
2022/12/13 11:52:16;;;;;;;16.10;9.80;;;4.50;67.60;;;;;;4920680;29;20256;-95
2022/12/13 11:55:04;;;;;;;19.83;10.47;;;4.50;67.00;;;;;;4918797;29;20263;-96
2022/12/13 11:57:44;;;;;;;18.50;10.67;;;4.50;66.70;;;;;;4918199;29;20209;-96
2022/12/13 12:00:34;;;;;;;17.00;9.70;;;4.60;66.60;;;;;;4919104;29;20201;-96
2022/12/13 12:03:18;;;;;;;22.23;11.43;;;4.60;66.60;;;;;;4918166;29;20213;-96
2022/12/13 12:08:46;;;;;;;17.90;9.77;;;4.60;66.10;;;;;;4930044;29;20212;-96
2022/12/13 12:11:37;;;;;;;17.17;9.83;;;4.60;66.30;;;;;;4922021;29;20622;-96
2022/12/13 12:14:20;;;;;;;23.37;10.83;;;4.60;66.00;;;;;;4921152;29;20232;-96
2022/12/13 12:16:54;;;;;;;20.40;11.27;;;4.60;66.00;;;;;;4922098;29;20212;-96
2022/12/13 12:19:25;;;;;;;21.13;10.37;;;4.70;65.80;;;;;;4923122;29;20264;-96
2022/12/13 12:22:12;;;;;;;26.17;12.20;;;4.60;65.80;;;;;;4920670;29;20268;-96
2022/12/13 12:24:54;;;;;;;19.50;10.70;;;4.60;66.10;;;;;;4922385;29;20201;-96
2022/12/13 12:27:35;;;;;;;18.17;9.63;;;4.60;66.20;;;;;;4938622;29;20216;-96
2022/12/13 12:33:58;;;;;;;21.77;11.43;;;4.60;66.00;;;;;;4936027;29;20223;-96
2022/12/13 12:43:37;;;;;;;20.23;10.73;;;4.60;66.10;;;;;;4936378;29;20192;-96
2022/12/13 12:46:28;;;;;;;20.20;11.07;;;4.60;66.10;;;;;;4911200;29;20628;-96
2022/12/13 12:49:41;;;;;;;17.10;9.50;;;4.60;66.10;;;;;;4903102;29;20220;-96
2022/12/13 12:52:33;;;;;;;18.43;10.63;;;4.60;65.60;;;;;;4907031;29;20694;-96
2022/12/13 12:55:38;;;;;;;18.00;10.10;;;4.60;65.80;;;;;;4924284;29;20737;-96
2022/12/13 12:58:26;;;;;;;23.53;11.07;;;4.60;65.20;;;;;;4921072;29;20240;-96
2022/12/13 13:01:25;;;;;;;17.90;10.57;;;4.60;65.30;;;;;;4902451;29;20217;-96
2022/12/13 13:10:07;;;;;;;18.57;10.57;;;4.60;65.50;;;;;;4905841;29;20230;-96
2022/12/13 13:12:48;;;;;;;18.13;11.20;;;4.60;65.50;;;;;;4906623;29;20229;-96
2022/12/13 13:16:07;;;;;;;18.00;9.80;;;4.60;65.60;;;;;;4924462;29;20268;-96
2022/12/13 13:18:59;;;;;;;21.03;10.03;;;4.50;65.10;;;;;;4920062;29;20224;-96
2022/12/13 13:21:54;;;;;;;17.73;9.47;;;4.50;64.70;;;;;;4917333;29;20212;-96
2022/12/13 13:25:03;;;;;;;15.57;9.60;;;4.50;64.70;;;;;;4925671;29;20212;-96
2022/12/13 13:27:51;;;;;;;19.37;10.87;;;4.50;65.10;;;;;;4922422;29;20577;-96
2022/12/13 13:30:25;;;;;;;18.27;10.63;;;4.50;65.20;;;;;;4919946;29;20209;-96
2022/12/13 13:33:07;;;;;;;19.63;10.33;;;4.50;65.40;;;;;;4920803;29;20649;-96
2022/12/13 13:36:14;;;;;;;18.47;10.07;;;4.50;65.00;;;;;;4921906;29;20231;-96
2022/12/13 13:38:54;;;;;;;17.20;9.33;;;4.50;64.50;;;;;;4926271;29;20225;-96
2022/12/13 13:41:56;;;;;;;18.87;10.30;;;4.60;65.00;;;;;;4927645;29;20223;-96
2022/12/13 13:44:57;;;;;;;20.77;10.67;;;4.50;64.80;;;;;;4930374;29;20197;-96
2022/12/13 13:47:43;;;;;;;27.60;11.93;;;4.50;64.90;;;;;;4941520;29;20193;-96
2022/12/13 13:50:39;;;;;;;23.17;11.37;;;4.50;65.20;;;;;;4923453;29;20212;-96
2022/12/13 13:53:45;;;;;;;18.20;9.93;;;4.50;65.30;;;;;;4923000;29;20209;-96
2022/12/13 13:57:13;;;;;;;17.83;10.07;;;4.50;65.40;;;;;;4923047;29;20205;-96
2022/12/13 14:00:17;;;;;;;18.23;9.50;;;4.50;65.10;;;;;;4913951;29;20237;-96
2022/12/13 14:03:23;;;;;;;15.63;9.00;;;4.50;65.00;;;;;;4903642;29;20206;-96
2022/12/13 14:06:28;;;;;;;18.70;9.97;;;4.60;65.10;;;;;;4902661;29;20216;-96
2022/12/13 14:12:42;;;;;;;20.03;10.47;;;4.60;65.00;;;;;;4921110;29;20219;-96
2022/12/13 14:15:53;;;;;;;16.77;9.40;;;4.50;64.70;;;;;;4922518;29;20205;-96
2022/12/13 14:19:21;;;;;;;17.50;9.30;;;4.60;64.90;;;;;;4924283;29;20209;-96
2022/12/13 14:28:58;;;;;;;16.13;9.60;;;4.50;64.70;;;;;;4874225;29;20258;-96
2022/12/13 14:31:35;;;;;;;21.50;10.53;;;4.50;64.90;;;;;;4860104;29;20573;-96
2022/12/13 14:34:21;;;;;;;21.57;11.07;;;4.50;64.80;;;;;;4912908;29;20227;-96
2022/12/13 14:36:59;;;;;;;20.00;11.27;;;4.50;64.40;;;;;;4918982;29;20260;-95
2022/12/13 14:39:32;;;;;;;22.37;10.77;;;4.40;64.50;;;;;;4919871;29;20244;-96
2022/12/13 14:42:15;;;;;;;18.30;10.40;;;4.40;64.70;;;;;;4924190;29;20652;-96
2022/12/13 14:44:49;;;;;;;16.83;10.53;;;4.40;65.00;;;;;;4923419;29;20216;-95
2022/12/13 14:47:23;;;;;;;17.67;9.93;;;4.40;64.80;;;;;;4921000;29;20199;-96
2022/12/13 14:49:57;;;;;;;17.87;10.17;;;4.30;64.70;;;;;;4920312;29;20310;-96
2022/12/13 14:52:38;;;;;;;22.27;10.63;;;4.40;65.30;;;;;;4904579;29;20216;-96
2022/12/13 14:55:27;;;;;;;17.10;9.80;;;4.30;64.90;;;;;;4905589;29;20235;-96
2022/12/13 14:58:03;;;;;;;24.63;12.30;;;4.40;64.90;;;;;;4917947;29;20213;-96
2022/12/13 15:00:44;;;;;;;20.17;11.10;;;4.30;64.70;;;;;;4921997;29;20242;-96
2022/12/13 15:03:22;;;;;;;24.00;12.37;;;4.30;65.30;;;;;;4922173;29;20533;-96
2022/12/13 15:06:00;;;;;;;17.27;11.83;;;4.30;65.10;;;;;;4923055;29;20192;-95
2022/12/13 15:08:37;;;;;;;20.77;12.60;;;4.30;65.30;;;;;;4921440;29;20260;-96
2022/12/13 15:11:10;;;;;;;21.40;12.33;;;4.30;65.50;;;;;;4924796;29;20641;-96
2022/12/13 15:13:42;;;;;;;20.57;12.23;;;4.30;66.30;;;;;;4924591;29;20253;-96
2022/12/13 15:16:26;;;;;;;22.93;13.03;;;4.30;65.70;;;;;;4921661;29;20208;-95
2022/12/13 15:19:06;;;;;;;23.23;12.73;;;4.30;65.70;;;;;;4923066;29;20232;-95
2022/12/13 15:21:39;;;;;;;20.60;11.27;;;4.20;65.70;;;;;;4923019;29;20201;-95
2022/12/13 15:24:35;;;;;;;21.63;12.00;;;4.20;65.60;;;;;;4923402;29;20245;-96
2022/12/13 15:27:06;;;;;;;21.70;12.10;;;4.20;65.50;;;;;;4923724;29;20220;-96
2022/12/13 15:29:38;;;;;;;26.70;12.70;;;4.20;65.80;;;;;;4924984;29;20212;-96
2022/12/13 15:32:21;;;;;;;22.17;11.40;;;4.20;65.60;;;;;;4920782;29;20984;-96
2022/12/13 15:34:58;;;;;;;18.80;11.07;;;4.10;65.40;;;;;;4918716;29;20658;-96
2022/12/13 15:37:34;;;;;;;21.20;12.50;;;4.10;65.40;;;;;;4919519;29;20212;-96
2022/12/13 15:40:18;;;;;;;20.43;10.67;;;4.10;66.30;;;;;;4915907;29;20291;-96
2022/12/13 15:42:55;;;;;;;25.73;13.43;;;4.00;65.60;;;;;;4918899;29;20296;-96
2022/12/13 15:45:27;;;;;;;24.07;12.40;;;4.00;65.60;;;;;;4920349;29;20204;-96
2022/12/13 15:48:07;;;;;;;23.20;12.37;;;4.00;65.50;;;;;;4928195;29;20281;-96
2022/12/13 15:50:59;;;;;;;20.90;11.70;;;4.00;65.80;;;;;;4903427;29;20216;-96
2022/12/13 15:53:37;;;;;;;20.83;11.07;;;3.90;65.30;;;;;;4903540;29;20579;-96
2022/12/13 15:56:40;;;;;;;21.00;11.73;;;3.90;65.60;;;;;;4898568;29;20264;-96
2022/12/13 15:59:28;;;;;;;21.17;11.77;;;3.90;65.80;;;;;;4900015;29;20237;-96
2022/12/13 16:02:23;;;;;;;20.97;10.60;;;3.90;65.60;;;;;;4922108;29;20273;-96
2022/12/13 16:05:10;;;;;;;20.57;11.33;;;3.90;65.80;;;;;;4930215;29;20323;-96
2022/12/13 16:07:39;;;;;;;15.77;10.53;;;3.80;65.50;;;;;;4923959;29;20211;-96
2022/12/13 16:10:28;;;;;;;18.53;10.87;;;3.80;65.60;;;;;;4925640;29;20208;-96
2022/12/13 16:13:05;;;;;;;18.30;10.13;;;3.80;65.70;;;;;;4927862;29;20228;-96
2022/12/13 16:23:00;;;;;;;21.23;10.63;;;3.70;65.60;;;;;;4935892;29;20208;-96
2022/12/13 16:26:16;;;;;;;21.30;11.60;;;3.70;65.60;;;;;;4934180;29;20213;-96
2022/12/13 16:29:23;;;;;;;21.23;11.53;;;3.70;65.70;;;;;;4925313;29;20209;-96
2022/12/13 16:32:12;;;;;;;20.07;10.90;;;3.60;65.60;;;;;;4928691;29;20312;-96
2022/12/13 16:35:17;;;;;;;16.33;10.90;;;3.60;65.50;;;;;;4927855;29;20291;-96
2022/12/13 16:38:04;;;;;;;17.03;10.43;;;3.60;65.50;;;;;;4928588;29;20204;-96